Chapleau Airport
CYLD : now visible

Airfield :











YOU CAN JOIN US ON...

 
LOGIN :

Register | Disclaimer

   EN    FR    IT 

 









Legend :    VFR   Marginal VFR   IFR   Intensive IFR   Very Intensive IFR
Visi :
Ceiling :
>= 8 km
>= 3000ft
5 to 8 km
1000 to 3000 ft
1500m to 5 km
500 to 1000 ft
800 to 1500m
200 to 500 ft
< 800m
< 200 ft
Symbols :   Thunderstorms  Fog  Heavy snow  Heavy precipitations  Wind > 20 kt






- Airport Elevation : 1470 ft
- IATA code : YLD


CYLD - Chapleau

CURRENT METAR :
  • 181208Z 09007KT 060V120 15SM -SN SCT009 BKN070 M13/M14 A3009 RMK SC3AC3 SLP238

EXPIRED METARs :
  • 181200Z 09006KT 15SM BKN009 M13/M15 A3010 RMK SC7 PRESFR SLP240
  • 181100Z 11004KT 15SM SCT011 OVC080 M13/M15 A3016 RMK SC3AC5 SLP260

TAF TAF CYLD
Valid from the 18 at 13:00 until the 19 at 01:00 UTC


181244Z 1813/1901 11010KT P6SM SCT010 OVC080
TEMPO 1813/1815 3SM -SN OVC010
FM181600 11010G20KT 3/4SM -SN OVC006
TEMPO 1816/1820 21/2SM -SN
BECMG 1817/1819 07010G20KT
FM182000 06010KT 11/2SM -SN OVC015
PROB30 1820/1823 3/4SM -SN OVC006
FM182300 04009KT 4SM -SN OVC020 RMK NXT FCST BY 182000Z



MET'MAP, your aeronautical weather chart ! - Copyright ORBIFLY December 2007 - Disclaimer

ORBIFLY MET'MAP TEAM :

Programming & Development : Alexandra Zaïnal
Concept & original design : Baudouin d'Aumeries
Assistance for programming : Marc-Olivier Méhu
Technical & hardware support : Manuel Goepfert

Contact : metmap@orbifly.com




SOURCES & CREDITS :

   NOAA       Earth
Advisory